sensor_id;sensor_type;location;lat;lon;timestamp;temperature;humidity
74153;DHT22;62505;46.070;14.492;2022-09-09T00:01:28;24.20;83.70
74153;DHT22;62505;46.070;14.492;2022-09-09T00:04:05;24.20;83.70
74153;DHT22;62505;46.070;14.492;2022-09-09T00:06:46;24.20;83.70
74153;DHT22;62505;46.070;14.492;2022-09-09T00:09:21;24.20;83.70
74153;DHT22;62505;46.070;14.492;2022-09-09T00:11:52;24.20;83.70
74153;DHT22;62505;46.070;14.492;2022-09-09T00:14:29;24.20;83.80
74153;DHT22;62505;46.070;14.492;2022-09-09T00:17:06;24.20;83.70
74153;DHT22;62505;46.070;14.492;2022-09-09T00:19:46;24.20;83.80
74153;DHT22;62505;46.070;14.492;2022-09-09T00:22:19;24.20;83.70
74153;DHT22;62505;46.070;14.492;2022-09-09T00:24:51;24.20;83.70
74153;DHT22;62505;46.070;14.492;2022-09-09T00:27:26;24.20;83.70
74153;DHT22;62505;46.070;14.492;2022-09-09T00:30:15;24.20;83.70
74153;DHT22;62505;46.070;14.492;2022-09-09T00:32:49;24.20;83.60
74153;DHT22;62505;46.070;14.492;2022-09-09T00:35:20;24.20;83.60
74153;DHT22;62505;46.070;14.492;2022-09-09T00:37:51;24.20;83.70
74153;DHT22;62505;46.070;14.492;2022-09-09T00:40:31;24.20;83.70
74153;DHT22;62505;46.070;14.492;2022-09-09T00:43:12;24.20;83.70
74153;DHT22;62505;46.070;14.492;2022-09-09T00:48:44;24.20;83.70
74153;DHT22;62505;46.070;14.492;2022-09-09T00:51:23;24.20;83.70
74153;DHT22;62505;46.070;14.492;2022-09-09T00:54:06;24.20;83.70
74153;DHT22;62505;46.070;14.492;2022-09-09T00:56:38;24.20;83.70
74153;DHT22;62505;46.070;14.492;2022-09-09T00:59:24;24.20;83.80
74153;DHT22;62505;46.070;14.492;2022-09-09T01:01:53;24.20;83.70
74153;DHT22;62505;46.070;14.492;2022-09-09T01:04:26;24.20;83.60
74153;DHT22;62505;46.070;14.492;2022-09-09T01:07:01;24.20;83.60
74153;DHT22;62505;46.070;14.492;2022-09-09T01:09:38;24.20;83.70
74153;DHT22;62505;46.070;14.492;2022-09-09T01:12:12;24.20;83.70
74153;DHT22;62505;46.070;14.492;2022-09-09T01:14:45;24.20;83.70
74153;DHT22;62505;46.070;14.492;2022-09-09T01:17:15;24.20;83.60
74153;DHT22;62505;46.070;14.492;2022-09-09T01:20:01;24.20;83.70
74153;DHT22;62505;46.070;14.492;2022-09-09T01:22:35;24.20;83.80
74153;DHT22;62505;46.070;14.492;2022-09-09T01:25:28;24.20;83.80
74153;DHT22;62505;46.070;14.492;2022-09-09T01:28:00;24.20;83.80
74153;DHT22;62505;46.070;14.492;2022-09-09T01:30:27;24.20;83.90
74153;DHT22;62505;46.070;14.492;2022-09-09T01:32:56;24.20;83.80
74153;DHT22;62505;46.070;14.492;2022-09-09T01:35:40;24.20;83.90
74153;DHT22;62505;46.070;14.492;2022-09-09T01:38:09;24.20;83.90
74153;DHT22;62505;46.070;14.492;2022-09-09T01:40:37;24.20;83.80
74153;DHT22;62505;46.070;14.492;2022-09-09T01:43:05;24.20;83.80
74153;DHT22;62505;46.070;14.492;2022-09-09T01:45:33;24.20;83.90
74153;DHT22;62505;46.070;14.492;2022-09-09T01:48:01;24.20;83.80
74153;DHT22;62505;46.070;14.492;2022-09-09T01:50:29;24.20;83.90
74153;DHT22;62505;46.070;14.492;2022-09-09T01:52:58;24.20;83.90
74153;DHT22;62505;46.070;14.492;2022-09-09T01:55:30;24.20;83.80
74153;DHT22;62505;46.070;14.492;2022-09-09T01:58:14;24.20;83.90
74153;DHT22;62505;46.070;14.492;2022-09-09T02:00:48;24.20;83.90
74153;DHT22;62505;46.070;14.492;2022-09-09T02:03:21;24.20;83.90
74153;DHT22;62505;46.070;14.492;2022-09-09T02:05:57;24.20;83.90
74153;DHT22;62505;46.070;14.492;2022-09-09T02:08:40;24.20;83.90
74153;DHT22;62505;46.070;14.492;2022-09-09T02:11:12;24.20;83.90
74153;DHT22;62505;46.070;14.492;2022-09-09T02:13:43;24.20;83.90
74153;DHT22;62505;46.070;14.492;2022-09-09T02:16:16;24.20;84.60
74153;DHT22;62505;46.070;14.492;2022-09-09T02:18:48;24.20;83.90
74153;DHT22;62505;46.070;14.492;2022-09-09T02:21:18;24.20;83.90
74153;DHT22;62505;46.070;14.492;2022-09-09T02:23:47;24.20;83.90
74153;DHT22;62505;46.070;14.492;2022-09-09T02:26:19;24.20;83.90
74153;DHT22;62505;46.070;14.492;2022-09-09T02:28:57;24.20;83.90
74153;DHT22;62505;46.070;14.492;2022-09-09T02:31:34;24.20;83.90
74153;DHT22;62505;46.070;14.492;2022-09-09T02:34:04;24.20;83.90
74153;DHT22;62505;46.070;14.492;2022-09-09T02:36:33;24.20;83.90
74153;DHT22;62505;46.070;14.492;2022-09-09T02:39:04;24.20;84.00
74153;DHT22;62505;46.070;14.492;2022-09-09T02:41:33;24.20;83.90
74153;DHT22;62505;46.070;14.492;2022-09-09T02:44:05;24.10;83.80
74153;DHT22;62505;46.070;14.492;2022-09-09T02:46:41;24.20;83.70
74153;DHT22;62505;46.070;14.492;2022-09-09T02:49:17;24.20;83.70
74153;DHT22;62505;46.070;14.492;2022-09-09T02:51:51;24.20;83.80
74153;DHT22;62505;46.070;14.492;2022-09-09T02:54:27;24.20;83.90
74153;DHT22;62505;46.070;14.492;2022-09-09T02:57:00;24.20;83.80
74153;DHT22;62505;46.070;14.492;2022-09-09T02:59:30;24.20;83.90
74153;DHT22;62505;46.070;14.492;2022-09-09T03:01:58;24.20;83.90
74153;DHT22;62505;46.070;14.492;2022-09-09T03:04:25;24.20;83.80
74153;DHT22;62505;46.070;14.492;2022-09-09T03:06:55;24.10;83.80
74153;DHT22;62505;46.070;14.492;2022-09-09T03:09:22;24.20;83.80
74153;DHT22;62505;46.070;14.492;2022-09-09T03:11:49;24.20;83.90
74153;DHT22;62505;46.070;14.492;2022-09-09T03:14:16;24.10;83.80
74153;DHT22;62505;46.070;14.492;2022-09-09T03:16:48;24.20;83.90
74153;DHT22;62505;46.070;14.492;2022-09-09T03:19:15;24.20;83.90
74153;DHT22;62505;46.070;14.492;2022-09-09T03:21:41;24.20;83.90
74153;DHT22;62505;46.070;14.492;2022-09-09T03:24:08;24.20;83.90
74153;DHT22;62505;46.070;14.492;2022-09-09T03:26:35;24.20;83.80
74153;DHT22;62505;46.070;14.492;2022-09-09T03:29:03;24.10;83.70
74153;DHT22;62505;46.070;14.492;2022-09-09T03:31:32;24.20;83.90
74153;DHT22;62505;46.070;14.492;2022-09-09T03:34:06;24.20;83.80
74153;DHT22;62505;46.070;14.492;2022-09-09T03:36:33;24.20;83.70
74153;DHT22;62505;46.070;14.492;2022-09-09T03:39:00;24.20;83.80
74153;DHT22;62505;46.070;14.492;2022-09-09T03:41:28;24.20;83.70
74153;DHT22;62505;46.070;14.492;2022-09-09T03:43:55;24.20;83.70
74153;DHT22;62505;46.070;14.492;2022-09-09T03:46:24;24.10;83.70
74153;DHT22;62505;46.070;14.492;2022-09-09T03:48:52;24.10;83.70
74153;DHT22;62505;46.070;14.492;2022-09-09T03:51:21;24.20;83.70
74153;DHT22;62505;46.070;14.492;2022-09-09T03:53:48;24.10;83.70
74153;DHT22;62505;46.070;14.492;2022-09-09T03:56:16;24.20;83.70
74153;DHT22;62505;46.070;14.492;2022-09-09T03:58:42;24.10;83.60
74153;DHT22;62505;46.070;14.492;2022-09-09T04:01:12;24.20;83.60
74153;DHT22;62505;46.070;14.492;2022-09-09T04:03:39;24.10;83.60
74153;DHT22;62505;46.070;14.492;2022-09-09T04:06:08;24.20;83.60
74153;DHT22;62505;46.070;14.492;2022-09-09T04:08:38;24.20;83.70
74153;DHT22;62505;46.070;14.492;2022-09-09T04:11:05;24.10;83.60
74153;DHT22;62505;46.070;14.492;2022-09-09T04:13:33;24.20;83.60
74153;DHT22;62505;46.070;14.492;2022-09-09T04:16:02;24.20;83.70
74153;DHT22;62505;46.070;14.492;2022-09-09T04:18:33;24.20;84.00
74153;DHT22;62505;46.070;14.492;2022-09-09T04:21:00;24.20;84.00
74153;DHT22;62505;46.070;14.492;2022-09-09T04:23:29;24.20;84.50
74153;DHT22;62505;46.070;14.492;2022-09-09T04:25:59;24.20;84.80
74153;DHT22;62505;46.070;14.492;2022-09-09T04:28:27;24.20;85.50
74153;DHT22;62505;46.070;14.492;2022-09-09T04:30:55;24.20;86.00
74153;DHT22;62505;46.070;14.492;2022-09-09T04:33:24;24.30;87.80
74153;DHT22;62505;46.070;14.492;2022-09-09T04:35:52;24.30;88.50
74153;DHT22;62505;46.070;14.492;2022-09-09T04:38:21;24.30;88.10
74153;DHT22;62505;46.070;14.492;2022-09-09T04:40:49;24.30;89.60
74153;DHT22;62505;46.070;14.492;2022-09-09T04:43:19;24.30;90.40
74153;DHT22;62505;46.070;14.492;2022-09-09T04:45:48;24.40;91.10
74153;DHT22;62505;46.070;14.492;2022-09-09T04:48:15;24.40;91.50
74153;DHT22;62505;46.070;14.492;2022-09-09T04:50:42;24.40;90.60
74153;DHT22;62505;46.070;14.492;2022-09-09T04:53:09;24.40;91.80
74153;DHT22;62505;46.070;14.492;2022-09-09T04:55:36;24.40;91.90
74153;DHT22;62505;46.070;14.492;2022-09-09T04:58:03;24.40;91.10
74153;DHT22;62505;46.070;14.492;2022-09-09T05:00:33;24.40;91.40
74153;DHT22;62505;46.070;14.492;2022-09-09T05:03:02;24.40;91.10
74153;DHT22;62505;46.070;14.492;2022-09-09T05:05:30;24.40;90.60
74153;DHT22;62505;46.070;14.492;2022-09-09T05:08:01;24.40;90.50
74153;DHT22;62505;46.070;14.492;2022-09-09T05:10:29;24.40;90.00
74153;DHT22;62505;46.070;14.492;2022-09-09T05:12:56;24.40;89.20
74153;DHT22;62505;46.070;14.492;2022-09-09T05:15:22;24.40;89.00
74153;DHT22;62505;46.070;14.492;2022-09-09T05:17:51;24.30;88.50
74153;DHT22;62505;46.070;14.492;2022-09-09T05:20:19;24.40;87.50
74153;DHT22;62505;46.070;14.492;2022-09-09T05:22:45;24.30;87.80
74153;DHT22;62505;46.070;14.492;2022-09-09T05:25:12;24.30;87.30
74153;DHT22;62505;46.070;14.492;2022-09-09T05:27:39;24.30;87.20
74153;DHT22;62505;46.070;14.492;2022-09-09T05:30:07;24.40;87.70
74153;DHT22;62505;46.070;14.492;2022-09-09T05:32:34;24.40;87.90
74153;DHT22;62505;46.070;14.492;2022-09-09T05:35:04;24.40;87.80
74153;DHT22;62505;46.070;14.492;2022-09-09T05:37:31;24.40;87.30
74153;DHT22;62505;46.070;14.492;2022-09-09T05:39:58;24.40;87.60
74153;DHT22;62505;46.070;14.492;2022-09-09T05:42:30;24.40;87.10
74153;DHT22;62505;46.070;14.492;2022-09-09T05:44:57;24.40;87.00
74153;DHT22;62505;46.070;14.492;2022-09-09T05:47:24;24.40;86.80
74153;DHT22;62505;46.070;14.492;2022-09-09T05:49:53;24.30;86.60
74153;DHT22;62505;46.070;14.492;2022-09-09T05:52:22;24.40;86.40
74153;DHT22;62505;46.070;14.492;2022-09-09T05:54:49;24.30;86.10
74153;DHT22;62505;46.070;14.492;2022-09-09T05:57:16;24.30;85.90
74153;DHT22;62505;46.070;14.492;2022-09-09T05:59:44;24.30;85.80
74153;DHT22;62505;46.070;14.492;2022-09-09T06:02:11;24.30;85.60
74153;DHT22;62505;46.070;14.492;2022-09-09T06:04:38;24.30;85.50
74153;DHT22;62505;46.070;14.492;2022-09-09T06:07:05;24.30;85.40
74153;DHT22;62505;46.070;14.492;2022-09-09T06:09:33;24.30;85.30
74153;DHT22;62505;46.070;14.492;2022-09-09T06:12:01;24.30;85.30
74153;DHT22;62505;46.070;14.492;2022-09-09T06:14:28;24.30;85.10
74153;DHT22;62505;46.070;14.492;2022-09-09T06:16:54;24.30;84.90
74153;DHT22;62505;46.070;14.492;2022-09-09T06:19:22;24.20;84.80
74153;DHT22;62505;46.070;14.492;2022-09-09T06:21:50;24.30;84.90
74153;DHT22;62505;46.070;14.492;2022-09-09T06:24:16;24.20;84.70
74153;DHT22;62505;46.070;14.492;2022-09-09T06:26:46;24.20;84.60
74153;DHT22;62505;46.070;14.492;2022-09-09T06:29:13;24.30;84.60
74153;DHT22;62505;46.070;14.492;2022-09-09T06:31:40;24.30;84.50
74153;DHT22;62505;46.070;14.492;2022-09-09T06:34:08;24.30;84.40
74153;DHT22;62505;46.070;14.492;2022-09-09T06:36:36;24.20;84.30
74153;DHT22;62505;46.070;14.492;2022-09-09T06:39:04;24.20;84.20
74153;DHT22;62505;46.070;14.492;2022-09-09T06:41:32;24.20;84.10
74153;DHT22;62505;46.070;14.492;2022-09-09T06:44:01;24.20;84.20
74153;DHT22;62505;46.070;14.492;2022-09-09T06:46:29;24.20;84.10
74153;DHT22;62505;46.070;14.492;2022-09-09T06:48:59;24.20;84.10
74153;DHT22;62505;46.070;14.492;2022-09-09T06:51:27;24.20;84.00
74153;DHT22;62505;46.070;14.492;2022-09-09T06:53:56;24.20;84.00
74153;DHT22;62505;46.070;14.492;2022-09-09T06:56:27;24.20;83.90
74153;DHT22;62505;46.070;14.492;2022-09-09T06:58:55;24.20;83.90
74153;DHT22;62505;46.070;14.492;2022-09-09T07:01:26;24.20;83.70
74153;DHT22;62505;46.070;14.492;2022-09-09T07:03:54;24.20;83.70
74153;DHT22;62505;46.070;14.492;2022-09-09T07:06:24;24.20;83.60
74153;DHT22;62505;46.070;14.492;2022-09-09T07:08:53;24.20;83.60
74153;DHT22;62505;46.070;14.492;2022-09-09T07:11:21;24.20;83.60
74153;DHT22;62505;46.070;14.492;2022-09-09T07:13:49;24.20;83.60
74153;DHT22;62505;46.070;14.492;2022-09-09T07:16:18;24.20;83.50
74153;DHT22;62505;46.070;14.492;2022-09-09T07:18:47;24.20;83.50
74153;DHT22;62505;46.070;14.492;2022-09-09T07:21:16;24.20;83.40
74153;DHT22;62505;46.070;14.492;2022-09-09T07:23:44;24.20;83.40
74153;DHT22;62505;46.070;14.492;2022-09-09T07:26:13;24.20;84.10
74153;DHT22;62505;46.070;14.492;2022-09-09T07:28:40;24.20;83.40
74153;DHT22;62505;46.070;14.492;2022-09-09T07:31:13;24.20;83.40
74153;DHT22;62505;46.070;14.492;2022-09-09T07:33:42;24.20;83.30
74153;DHT22;62505;46.070;14.492;2022-09-09T07:36:14;24.20;83.20
74153;DHT22;62505;46.070;14.492;2022-09-09T07:38:43;24.20;83.20
74153;DHT22;62505;46.070;14.492;2022-09-09T07:41:13;24.20;83.20
74153;DHT22;62505;46.070;14.492;2022-09-09T07:43:41;24.20;83.20
74153;DHT22;62505;46.070;14.492;2022-09-09T07:46:08;24.20;83.20
74153;DHT22;62505;46.070;14.492;2022-09-09T07:48:36;24.20;83.10
74153;DHT22;62505;46.070;14.492;2022-09-09T07:51:05;24.20;83.10
74153;DHT22;62505;46.070;14.492;2022-09-09T07:53:34;24.20;83.10
74153;DHT22;62505;46.070;14.492;2022-09-09T07:56:06;24.20;83.00
74153;DHT22;62505;46.070;14.492;2022-09-09T07:58:35;24.20;83.00
74153;DHT22;62505;46.070;14.492;2022-09-09T08:01:07;24.20;83.00
74153;DHT22;62505;46.070;14.492;2022-09-09T08:03:34;24.20;82.90
74153;DHT22;62505;46.070;14.492;2022-09-09T08:06:02;24.20;82.90
74153;DHT22;62505;46.070;14.492;2022-09-09T08:08:29;24.20;82.90
74153;DHT22;62505;46.070;14.492;2022-09-09T08:11:04;24.20;82.80
74153;DHT22;62505;46.070;14.492;2022-09-09T08:13:31;24.10;82.70
74153;DHT22;62505;46.070;14.492;2022-09-09T08:16:05;24.20;82.80
74153;DHT22;62505;46.070;14.492;2022-09-09T08:18:33;24.20;82.70
74153;DHT22;62505;46.070;14.492;2022-09-09T08:21:06;24.20;82.70
74153;DHT22;62505;46.070;14.492;2022-09-09T08:23:34;24.20;82.60
74153;DHT22;62505;46.070;14.492;2022-09-09T08:26:07;24.20;82.50
74153;DHT22;62505;46.070;14.492;2022-09-09T08:28:34;24.20;82.40
74153;DHT22;62505;46.070;14.492;2022-09-09T08:31:12;24.20;82.40
74153;DHT22;62505;46.070;14.492;2022-09-09T08:33:40;24.20;82.40
74153;DHT22;62505;46.070;14.492;2022-09-09T08:36:09;24.10;82.30
74153;DHT22;62505;46.070;14.492;2022-09-09T08:38:37;24.20;82.30
74153;DHT22;62505;46.070;14.492;2022-09-09T08:41:34;24.20;82.20
74153;DHT22;62505;46.070;14.492;2022-09-09T08:44:07;24.20;82.30
74153;DHT22;62505;46.070;14.492;2022-09-09T08:46:44;24.20;82.10
74153;DHT22;62505;46.070;14.492;2022-09-09T08:49:23;24.20;82.10
74153;DHT22;62505;46.070;14.492;2022-09-09T08:51:55;24.20;82.00
74153;DHT22;62505;46.070;14.492;2022-09-09T08:54:23;24.20;82.70
74153;DHT22;62505;46.070;14.492;2022-09-09T08:56:51;24.20;81.90
74153;DHT22;62505;46.070;14.492;2022-09-09T08:59:19;24.20;81.80
74153;DHT22;62505;46.070;14.492;2022-09-09T09:02:00;24.20;81.70
74153;DHT22;62505;46.070;14.492;2022-09-09T09:04:41;24.20;81.70
74153;DHT22;62505;46.070;14.492;2022-09-09T09:07:21;24.20;81.70
74153;DHT22;62505;46.070;14.492;2022-09-09T09:09:57;24.20;81.60
74153;DHT22;62505;46.070;14.492;2022-09-09T09:12:30;24.20;81.50
74153;DHT22;62505;46.070;14.492;2022-09-09T09:14:59;24.20;81.50
74153;DHT22;62505;46.070;14.492;2022-09-09T09:17:28;24.20;81.50
74153;DHT22;62505;46.070;14.492;2022-09-09T09:19:57;24.10;81.30
74153;DHT22;62505;46.070;14.492;2022-09-09T09:22:30;24.20;81.30
74153;DHT22;62505;46.070;14.492;2022-09-09T09:25:04;24.20;81.30
74153;DHT22;62505;46.070;14.492;2022-09-09T09:27:42;24.20;82.00
74153;DHT22;62505;46.070;14.492;2022-09-09T09:30:15;24.20;81.30
74153;DHT22;62505;46.070;14.492;2022-09-09T09:32:49;24.20;81.20
74153;DHT22;62505;46.070;14.492;2022-09-09T09:35:17;24.10;81.80
74153;DHT22;62505;46.070;14.492;2022-09-09T09:37:44;24.10;81.00
74153;DHT22;62505;46.070;14.492;2022-09-09T09:40:13;24.10;81.00
74153;DHT22;62505;46.070;14.492;2022-09-09T09:42:52;24.10;81.00
74153;DHT22;62505;46.070;14.492;2022-09-09T09:45:27;24.10;80.90
74153;DHT22;62505;46.070;14.492;2022-09-09T09:48:02;24.20;80.90
74153;DHT22;62505;46.070;14.492;2022-09-09T09:50:30;24.10;80.70
74153;DHT22;62505;46.070;14.492;2022-09-09T09:53:00;24.20;80.70
74153;DHT22;62505;46.070;14.492;2022-09-09T09:55:28;24.10;80.70
74153;DHT22;62505;46.070;14.492;2022-09-09T09:58:02;24.20;80.60
74153;DHT22;62505;46.070;14.492;2022-09-09T10:00:29;24.10;80.50
74153;DHT22;62505;46.070;14.492;2022-09-09T10:02:56;24.10;80.60
74153;DHT22;62505;46.070;14.492;2022-09-09T10:05:27;24.10;80.40
74153;DHT22;62505;46.070;14.492;2022-09-09T10:08:05;24.10;80.40
74153;DHT22;62505;46.070;14.492;2022-09-09T10:10:47;24.10;80.40
74153;DHT22;62505;46.070;14.492;2022-09-09T10:13:20;24.10;80.30
74153;DHT22;62505;46.070;14.492;2022-09-09T10:15:59;24.10;80.30
74153;DHT22;62505;46.070;14.492;2022-09-09T10:18:56;24.10;80.20
74153;DHT22;62505;46.070;14.492;2022-09-09T10:24:37;24.10;80.10
74153;DHT22;62505;46.070;14.492;2022-09-09T10:27:15;24.10;80.00
74153;DHT22;62505;46.070;14.492;2022-09-09T10:29:56;24.10;80.00
74153;DHT22;62505;46.070;14.492;2022-09-09T10:32:35;24.10;80.00
74153;DHT22;62505;46.070;14.492;2022-09-09T10:35:21;24.10;79.80
74153;DHT22;62505;46.070;14.492;2022-09-09T10:38:04;24.10;80.60
74153;DHT22;62505;46.070;14.492;2022-09-09T10:40:39;24.10;79.80
74153;DHT22;62505;46.070;14.492;2022-09-09T10:43:17;24.10;79.60
74153;DHT22;62505;46.070;14.492;2022-09-09T10:45:56;24.10;79.60
74153;DHT22;62505;46.070;14.492;2022-09-09T10:48:33;24.10;79.60
74153;DHT22;62505;46.070;14.492;2022-09-09T10:51:18;24.10;79.70
74153;DHT22;62505;46.070;14.492;2022-09-09T10:53:55;24.10;79.60
74153;DHT22;62505;46.070;14.492;2022-09-09T10:56:26;24.10;79.60
74153;DHT22;62505;46.070;14.492;2022-09-09T10:58:59;24.10;79.60
74153;DHT22;62505;46.070;14.492;2022-09-09T11:01:31;24.10;79.50
74153;DHT22;62505;46.070;14.492;2022-09-09T11:04:03;24.10;79.60
74153;DHT22;62505;46.070;14.492;2022-09-09T11:06:36;24.10;79.60
74153;DHT22;62505;46.070;14.492;2022-09-09T11:09:05;24.10;79.60
74153;DHT22;62505;46.070;14.492;2022-09-09T11:11:35;24.10;79.60
74153;DHT22;62505;46.070;14.492;2022-09-09T11:14:09;24.10;80.40
74153;DHT22;62505;46.070;14.492;2022-09-09T11:16:40;24.10;79.70
74153;DHT22;62505;46.070;14.492;2022-09-09T11:19:16;24.10;79.70
74153;DHT22;62505;46.070;14.492;2022-09-09T11:21:46;24.10;80.60
74153;DHT22;62505;46.070;14.492;2022-09-09T11:24:18;24.10;79.70
74153;DHT22;62505;46.070;14.492;2022-09-09T11:26:52;24.10;80.60
74153;DHT22;62505;46.070;14.492;2022-09-09T11:29:42;24.10;79.90
74153;DHT22;62505;46.070;14.492;2022-09-09T11:32:25;24.10;79.90
74153;DHT22;62505;46.070;14.492;2022-09-09T11:34:59;24.10;79.90
74153;DHT22;62505;46.070;14.492;2022-09-09T11:37:51;24.10;79.90
74153;DHT22;62505;46.070;14.492;2022-09-09T11:40:23;24.10;80.00
74153;DHT22;62505;46.070;14.492;2022-09-09T11:43:02;24.10;80.00
74153;DHT22;62505;46.070;14.492;2022-09-09T11:45:30;24.10;80.10
74153;DHT22;62505;46.070;14.492;2022-09-09T11:48:00;24.10;80.00
74153;DHT22;62505;46.070;14.492;2022-09-09T11:50:31;24.10;80.10
74153;DHT22;62505;46.070;14.492;2022-09-09T11:53:22;24.10;80.10
74153;DHT22;62505;46.070;14.492;2022-09-09T11:56:05;24.10;80.10
74153;DHT22;62505;46.070;14.492;2022-09-09T11:58:37;24.10;80.10
74153;DHT22;62505;46.070;14.492;2022-09-09T12:01:26;24.10;80.10
74153;DHT22;62505;46.070;14.492;2022-09-09T12:04:12;24.10;80.20
74153;DHT22;62505;46.070;14.492;2022-09-09T12:06:44;24.10;80.20
74153;DHT22;62505;46.070;14.492;2022-09-09T12:09:25;24.10;80.30
74153;DHT22;62505;46.070;14.492;2022-09-09T12:12:05;24.10;80.30
74153;DHT22;62505;46.070;14.492;2022-09-09T12:14:37;24.10;80.40
74153;DHT22;62505;46.070;14.492;2022-09-09T12:17:18;24.00;80.30
74153;DHT22;62505;46.070;14.492;2022-09-09T12:19:48;24.10;80.50
74153;DHT22;62505;46.070;14.492;2022-09-09T12:22:35;24.10;80.50
74153;DHT22;62505;46.070;14.492;2022-09-09T12:25:09;24.10;80.60
74153;DHT22;62505;46.070;14.492;2022-09-09T12:27:45;24.10;80.60
74153;DHT22;62505;46.070;14.492;2022-09-09T12:30:16;24.10;80.70
74153;DHT22;62505;46.070;14.492;2022-09-09T12:32:45;24.10;80.60
74153;DHT22;62505;46.070;14.492;2022-09-09T12:35:19;24.10;80.70
74153;DHT22;62505;46.070;14.492;2022-09-09T12:37:50;24.00;80.70
74153;DHT22;62505;46.070;14.492;2022-09-09T12:40:22;24.10;80.70
74153;DHT22;62505;46.070;14.492;2022-09-09T12:42:49;24.10;80.70
74153;DHT22;62505;46.070;14.492;2022-09-09T12:45:18;24.10;80.70
74153;DHT22;62505;46.070;14.492;2022-09-09T12:47:47;24.10;80.70
74153;DHT22;62505;46.070;14.492;2022-09-09T12:50:19;24.10;80.80
74153;DHT22;62505;46.070;14.492;2022-09-09T12:52:48;24.10;80.80
74153;DHT22;62505;46.070;14.492;2022-09-09T12:55:18;24.00;80.80
74153;DHT22;62505;46.070;14.492;2022-09-09T12:57:45;24.10;80.90
74153;DHT22;62505;46.070;14.492;2022-09-09T13:00:17;24.00;81.00
74153;DHT22;62505;46.070;14.492;2022-09-09T13:02:48;24.10;80.90
74153;DHT22;62505;46.070;14.492;2022-09-09T13:05:20;24.10;80.90
74153;DHT22;62505;46.070;14.492;2022-09-09T13:07:47;24.00;80.90
74153;DHT22;62505;46.070;14.492;2022-09-09T13:10:21;24.10;81.00
74153;DHT22;62505;46.070;14.492;2022-09-09T13:12:49;24.10;81.10
74153;DHT22;62505;46.070;14.492;2022-09-09T13:15:21;24.10;81.10
74153;DHT22;62505;46.070;14.492;2022-09-09T13:17:53;24.10;81.20
74153;DHT22;62505;46.070;14.492;2022-09-09T13:20:23;24.10;81.10
74153;DHT22;62505;46.070;14.492;2022-09-09T13:22:52;24.10;81.10
74153;DHT22;62505;46.070;14.492;2022-09-09T13:25:24;24.10;81.20
74153;DHT22;62505;46.070;14.492;2022-09-09T13:27:58;24.10;81.20
74153;DHT22;62505;46.070;14.492;2022-09-09T13:30:27;24.10;81.20
74153;DHT22;62505;46.070;14.492;2022-09-09T13:33:06;24.10;81.20
74153;DHT22;62505;46.070;14.492;2022-09-09T13:35:34;24.10;81.20
74153;DHT22;62505;46.070;14.492;2022-09-09T13:38:08;24.10;81.30
74153;DHT22;62505;46.070;14.492;2022-09-09T13:40:36;24.10;81.30
74153;DHT22;62505;46.070;14.492;2022-09-09T13:43:04;24.10;81.30
74153;DHT22;62505;46.070;14.492;2022-09-09T13:45:31;24.10;81.30
74153;DHT22;62505;46.070;14.492;2022-09-09T13:48:09;24.10;81.30
74153;DHT22;62505;46.070;14.492;2022-09-09T13:50:37;24.10;81.30
74153;DHT22;62505;46.070;14.492;2022-09-09T13:53:04;24.00;81.30
74153;DHT22;62505;46.070;14.492;2022-09-09T13:55:31;24.10;81.40
74153;DHT22;62505;46.070;14.492;2022-09-09T13:57:59;24.10;81.40
74153;DHT22;62505;46.070;14.492;2022-09-09T14:00:29;24.10;81.60
74153;DHT22;62505;46.070;14.492;2022-09-09T14:02:57;24.10;81.50
74153;DHT22;62505;46.070;14.492;2022-09-09T14:05:25;24.10;81.50
74153;DHT22;62505;46.070;14.492;2022-09-09T14:07:54;24.10;81.60
74153;DHT22;62505;46.070;14.492;2022-09-09T14:10:21;24.10;81.70
74153;DHT22;62505;46.070;14.492;2022-09-09T14:12:48;24.00;81.60
74153;DHT22;62505;46.070;14.492;2022-09-09T14:15:15;24.10;81.70
74153;DHT22;62505;46.070;14.492;2022-09-09T14:17:42;24.10;82.00
74153;DHT22;62505;46.070;14.492;2022-09-09T14:20:10;24.10;81.70
74153;DHT22;62505;46.070;14.492;2022-09-09T14:22:41;24.10;81.70
74153;DHT22;62505;46.070;14.492;2022-09-09T14:25:11;24.10;81.70
74153;DHT22;62505;46.070;14.492;2022-09-09T14:27:39;24.10;81.80
74153;DHT22;62505;46.070;14.492;2022-09-09T14:30:06;24.10;81.80
74153;DHT22;62505;46.070;14.492;2022-09-09T14:32:33;24.10;81.80
74153;DHT22;62505;46.070;14.492;2022-09-09T14:35:00;24.10;81.80
74153;DHT22;62505;46.070;14.492;2022-09-09T14:37:27;24.10;81.80
74153;DHT22;62505;46.070;14.492;2022-09-09T14:39:56;24.10;81.90
74153;DHT22;62505;46.070;14.492;2022-09-09T14:42:24;24.10;82.00
74153;DHT22;62505;46.070;14.492;2022-09-09T14:44:52;24.10;82.00
74153;DHT22;62505;46.070;14.492;2022-09-09T14:47:19;24.10;82.00
74153;DHT22;62505;46.070;14.492;2022-09-09T14:49:47;24.10;82.20
74153;DHT22;62505;46.070;14.492;2022-09-09T14:52:15;24.10;82.40
74153;DHT22;62505;46.070;14.492;2022-09-09T14:54:42;24.10;82.30
74153;DHT22;62505;46.070;14.492;2022-09-09T14:57:08;24.10;82.20
74153;DHT22;62505;46.070;14.492;2022-09-09T14:59:37;24.10;82.20
74153;DHT22;62505;46.070;14.492;2022-09-09T15:02:04;24.00;82.10
74153;DHT22;62505;46.070;14.492;2022-09-09T15:04:31;24.10;82.20
74153;DHT22;62505;46.070;14.492;2022-09-09T15:06:58;24.10;82.10
74153;DHT22;62505;46.070;14.492;2022-09-09T15:09:25;24.10;82.10
74153;DHT22;62505;46.070;14.492;2022-09-09T15:11:52;24.10;82.10
74153;DHT22;62505;46.070;14.492;2022-09-09T15:14:18;24.00;82.10
74153;DHT22;62505;46.070;14.492;2022-09-09T15:16:47;24.10;82.00
74153;DHT22;62505;46.070;14.492;2022-09-09T15:19:14;24.10;82.30
74153;DHT22;62505;46.070;14.492;2022-09-09T15:21:41;24.10;83.30
74153;DHT22;62505;46.070;14.492;2022-09-09T15:24:08;24.10;82.30
74153;DHT22;62505;46.070;14.492;2022-09-09T15:26:35;24.10;82.00
74153;DHT22;62505;46.070;14.492;2022-09-09T15:29:04;24.10;82.00
74153;DHT22;62505;46.070;14.492;2022-09-09T15:31:31;24.10;81.90
74153;DHT22;62505;46.070;14.492;2022-09-09T15:34:02;24.10;82.00
74153;DHT22;62505;46.070;14.492;2022-09-09T15:36:31;24.10;82.10
74153;DHT22;62505;46.070;14.492;2022-09-09T15:38:59;24.10;82.10
74153;DHT22;62505;46.070;14.492;2022-09-09T15:41:26;24.10;82.10
74153;DHT22;62505;46.070;14.492;2022-09-09T15:43:55;24.10;82.10
74153;DHT22;62505;46.070;14.492;2022-09-09T15:46:30;24.10;82.10